Aérodrome :
LOGIN :

S'inscrire | Disclaimer

   EN    FR    IT 

 










Légende :    VFR   VFR Marginal   IFR   IFR Intensif   IFR Très Intensif
Visi : 
Plafond : 
>= 8 km
>= 3000ft
5 à 8 km
1000 à 3000 ft
1500m à 5 km
500 à 1000 ft
800 à 1500m
200 à 500 ft
< 800m
< 200 ft
Symboles :   Orages  Brouillard  Fortes neiges  Fortes précipitations  Vent > 20 kt
SIGMETs :   Divers  Orages  Givrage  Turbulence  Onde Orograph.  Cendres Volcan.







- Altitude de l'aérodrome : 308 ft


ESCF - Malmen AB

DERNIER METAR :
  • 121050Z 36005KT 9999 FEW012 BKN015 M00/M02 Q1030

METARs EXPIRÉS :
  • 121020Z 01006KT 9999 -SN FEW010 BKN015 M00/M02 Q1030
  • 120950Z 02008KT 9999 OVC014 M01/M03 Q1030
  • 120920Z 02008KT 9999 OVC012 M01/M02 Q1030
  • 120850Z 01006KT 340V050 9999 BKN013 M01/M03 Q1030

TAF TAF ESCF
Valide du 12 à 12h jusqu'au 12 à 16h UTC


121130Z 1212/1216 01008G12KT 9999 BKN016
TEMPO 1212/1216 3000 SN BKN007 RMK MIL
Pas de NOTAMs connus pour ce terrain.



MET'MAP, la Météo Aéronautique d'un coup d'oeil ! - Copyright ORBIFLY Décembre 2007 - Disclaimer

ORBIFLY MET'MAP TEAM :

Programmation & Développement : Alexandra Zaïnal
Conception & Développement : Baudouin d'Aumeries
Co-Programmation & Développement : Marc-Olivier Méhu
Soutien technique & logistique : Manuel Goepfert

Contact : metmap@orbifly.com




SOURCES & CREDITS :

   NOAA